Time;durP1;ratioP1;P1;durP2;ratioP2;P2;SDS_P1;SDS_P2;PMS_P1;PMS_P2;Temp;Humidity;BMP_temperature;BMP_pressure;BME280_temperature;BME280_humidity;BME280_pressure;Samples;Min_cycle;Max_cycle;Signal;HPM_P1;HPM_P2
2023/10/21 00:02:31;;;;;;;26.55;6.85;;;;;;;25.15;53.43;99280.03;1741982;81;21948;-82
2023/10/21 00:05:36;;;;;;;27.95;7.40;;;;;;;24.79;54.36;99277.56;1737247;82;22013;-82
2023/10/21 00:08:41;;;;;;;19.55;6.62;;;;;;;24.74;54.69;99276.22;1738304;82;21276;-82
2023/10/21 00:11:47;;;;;;;26.70;7.00;;;;;;;24.81;54.48;99268.91;1737586;81;21347;-81
2023/10/21 00:14:54;;;;;;;22.65;7.12;;;;;;;24.98;54.17;99276.25;1749555;81;21256;-82
2023/10/21 00:18:00;;;;;;;20.32;6.67;;;;;;;25.11;53.79;99282.58;1738405;81;21865;-82
2023/10/21 00:21:06;;;;;;;23.70;7.60;;;;;;;24.25;56.07;99284.75;1716431;82;22190;-82
2023/10/21 00:24:12;;;;;;;26.33;7.78;;;;;;;24.56;55.18;99272.23;1738247;82;21308;-82
2023/10/21 00:27:18;;;;;;;32.80;7.42;;;;;;;24.82;54.37;99269.17;1730368;81;21296;-82
2023/10/21 00:30:23;;;;;;;29.63;8.38;;;;;;;24.46;55.67;99276.48;1741265;81;21283;-82
2023/10/21 00:33:29;;;;;;;28.80;7.78;;;;;;;24.63;55.28;99271.88;1740740;81;21272;-83
2023/10/21 00:36:36;;;;;;;26.55;6.67;;;;;;;24.53;55.30;99269.17;1730667;83;21299;-82
2023/10/21 00:39:43;;;;;;;26.77;7.08;;;;;;;24.51;55.79;99260.23;1732111;83;21336;-83
2023/10/21 00:42:49;;;;;;;27.82;8.13;;;;;;;24.56;55.52;99241.48;1735618;81;21282;-82
2023/10/21 00:45:54;;;;;;;24.77;7.47;;;;;;;24.58;55.55;99230.82;1753373;81;21303;-82
2023/10/21 00:49:02;;;;;;;33.78;7.80;;;;;;;24.45;55.89;99238.48;1733065;81;21297;-82
2023/10/21 00:52:06;;;;;;;22.17;7.62;;;;;;;24.65;55.33;99245.84;1732615;83;21337;-82
2023/10/21 00:55:13;;;;;;;33.63;8.03;;;;;;;24.59;55.36;99249.82;1731636;83;21763;-82
2023/10/21 00:58:19;;;;;;;21.17;6.95;;;;;;;24.54;55.65;99252.09;1732690;81;21295;-82
2023/10/21 01:01:24;;;;;;;22.02;7.50;;;;;;;24.71;55.12;99265.08;1732083;81;21344;-83
2023/10/21 01:04:30;;;;;;;24.55;8.23;;;;;;;24.39;56.04;99257.84;1720103;83;21294;-83
2023/10/21 01:07:35;;;;;;;34.30;8.58;;;;;;;24.30;56.34;99246.41;1741907;82;21327;-84
2023/10/21 01:10:41;;;;;;;25.55;7.95;;;;;;;24.78;54.94;99257.73;1696582;83;21274;-83
2023/10/21 01:13:48;;;;;;;28.87;8.43;;;;;;;24.92;54.47;99266.26;1742061;82;21793;-83
2023/10/21 01:16:55;;;;;;;26.00;7.53;;;;;;;24.87;54.64;99278.33;1764213;81;21316;-82
2023/10/21 01:20:00;;;;;;;32.35;8.80;;;;;;;24.70;55.02;99269.02;1742626;82;21852;-83
2023/10/21 01:23:06;;;;;;;23.22;7.78;;;;;;;25.05;54.02;99278.72;1738192;82;21296;-82
2023/10/21 01:26:12;;;;;;;29.55;8.85;;;;;;;24.77;54.79;99277.61;1740362;82;21334;-82
2023/10/21 01:29:18;;;;;;;31.45;8.60;;;;;;;24.98;54.19;99269.26;1744065;82;21875;-82
2023/10/21 01:32:25;;;;;;;20.30;7.60;;;;;;;25.19;53.52;99267.11;1739792;81;21351;-83
2023/10/21 01:35:31;;;;;;;21.35;7.70;;;;;;;24.84;54.69;99269.69;1732595;82;21337;-81
2023/10/21 01:38:36;;;;;;;25.50;8.58;;;;;;;24.69;55.23;99275.70;1732893;82;21960;-82
2023/10/21 01:41:43;;;;;;;27.45;8.38;;;;;;;24.48;55.83;99264.47;1734542;82;21951;-81
2023/10/21 01:44:50;;;;;;;22.93;8.55;;;;;;;24.53;55.91;99255.20;1707670;82;21301;-82
2023/10/21 01:47:57;;;;;;;26.35;8.18;;;;;;;24.68;55.45;99264.27;1727168;81;21303;-83
2023/10/21 01:51:09;;;;;;;29.72;8.85;;;;;;;24.82;54.90;99269.17;1711772;84;21273;-83
2023/10/21 01:54:14;;;;;;;20.60;8.53;;;;;;;24.80;54.84;99265.28;1780226;80;21262;-83
2023/10/21 01:57:19;;;;;;;29.70;9.25;;;;;;;24.84;54.91;99282.28;1792486;79;21861;-85
2023/10/21 02:00:27;;;;;;;27.48;8.80;;;;;;;24.82;55.04;99291.54;1727258;82;21300;-83
2023/10/21 02:03:33;;;;;;;30.17;9.00;;;;;;;25.02;54.50;99261.95;1745998;81;21654;-82
2023/10/21 02:06:39;;;;;;;29.37;8.90;;;;;;;25.00;54.44;99254.43;1733395;82;21959;-81
2023/10/21 02:09:48;;;;;;;27.48;8.38;;;;;;;25.11;54.15;99256.00;1734189;82;21308;-82
2023/10/21 02:12:54;;;;;;;26.40;9.33;;;;;;;25.21;53.82;99264.27;1736467;82;21733;-82
2023/10/21 02:16:00;;;;;;;25.72;8.35;;;;;;;25.35;53.26;99284.55;1732469;82;21308;-82
2023/10/21 02:19:06;;;;;;;21.55;9.10;;;;;;;25.15;53.85;99299.05;1735673;82;21315;-82
2023/10/21 02:22:12;;;;;;;32.53;10.18;;;;;;;25.29;53.67;99312.33;1713327;83;21316;-82
2023/10/21 02:25:19;;;;;;;23.18;9.55;;;;;;;25.21;53.68;99310.44;1775977;80;21291;-83
2023/10/21 02:28:24;;;;;;;28.45;9.33;;;;;;;25.28;53.67;99311.50;1741197;80;21300;-81
2023/10/21 02:31:30;;;;;;;26.33;8.80;;;;;;;25.01;54.50;99313.44;1715858;82;21370;-82
2023/10/21 02:34:37;;;;;;;23.50;9.13;;;;;;;24.97;54.57;99302.56;1759525;81;21909;-82
2023/10/21 02:37:42;;;;;;;32.08;9.50;;;;;;;24.80;55.17;99291.02;1744844;82;21331;-83
2023/10/21 02:40:50;;;;;;;25.80;9.88;;;;;;;24.70;55.48;99285.79;1777091;80;21279;-82
2023/10/21 02:43:57;;;;;;;25.35;9.58;;;;;;;24.61;55.49;99282.53;1776172;80;21327;-82
2023/10/21 02:47:04;;;;;;;30.45;10.23;;;;;;;24.61;55.62;99280.56;1767586;80;21303;-82
2023/10/21 02:50:12;;;;;;;30.97;10.08;;;;;;;24.37;56.42;99274.91;1740379;82;21288;-83
2023/10/21 02:53:17;;;;;;;30.80;11.25;;;;;;;24.61;55.77;99274.97;1739483;82;21323;-82
2023/10/21 02:56:23;;;;;;;24.32;10.10;;;;;;;24.50;56.07;99271.98;1740204;82;21896;-82
2023/10/21 02:59:30;;;;;;;23.47;10.13;;;;;;;24.67;55.70;99268.20;1739440;81;21351;-82
2023/10/21 03:02:35;;;;;;;26.10;10.38;;;;;;;24.70;55.56;99263.42;1741285;81;21311;-82
2023/10/21 03:05:42;;;;;;;26.65;9.88;;;;;;;24.87;55.31;99264.91;1746171;82;21307;-82
2023/10/21 03:08:47;;;;;;;31.82;11.97;;;;;;;25.07;54.71;99262.45;1745117;82;21339;-82
2023/10/21 03:11:52;;;;;;;38.25;10.75;;;;;;;24.64;55.71;99250.59;1745452;82;21658;-82
2023/10/21 03:14:58;;;;;;;29.25;10.35;;;;;;;24.26;56.85;99251.48;1751022;80;21320;-81
2023/10/21 03:18:04;;;;;;;30.68;10.72;;;;;;;24.73;55.73;99251.63;1739352;81;21647;-82
2023/10/21 03:21:11;;;;;;;26.87;10.53;;;;;;;24.60;56.11;99256.50;1740337;82;21697;-82
2023/10/21 03:24:17;;;;;;;27.70;9.83;;;;;;;24.96;55.28;99255.58;1739326;82;21323;-83
2023/10/21 03:27:22;;;;;;;23.32;9.68;;;;;;;24.66;55.56;99255.34;1739234;82;21310;-82
2023/10/21 03:30:28;;;;;;;32.53;10.30;;;;;;;24.22;57.46;99254.02;1733001;81;21698;-82
2023/10/21 03:33:33;;;;;;;27.73;10.23;;;;;;;24.00;58.07;99253.09;1793300;79;21261;-82
2023/10/21 03:36:38;;;;;;;24.02;9.90;;;;;;;24.73;56.29;99254.98;1789539;80;21631;-82
2023/10/21 03:39:44;;;;;;;30.20;10.32;;;;;;;24.16;57.61;99258.82;1719121;83;21336;-82
2023/10/21 03:42:49;;;;;;;31.12;10.58;;;;;;;24.11;57.78;99255.23;1735934;82;21343;-82
2023/10/21 03:45:55;;;;;;;27.77;9.60;;;;;;;24.36;57.00;99259.23;1746024;81;21323;-82
2023/10/21 03:49:00;;;;;;;29.05;9.98;;;;;;;24.74;56.53;99253.28;1745473;82;21287;-82
2023/10/21 03:52:07;;;;;;;31.77;10.98;;;;;;;24.82;55.99;99250.42;1745306;82;21308;-82
2023/10/21 03:55:13;;;;;;;32.90;11.22;;;;;;;24.70;55.89;99252.77;1745403;82;21654;-82
2023/10/21 03:58:19;;;;;;;28.52;10.95;;;;;;;24.84;55.72;99250.12;1745351;82;21315;-82
2023/10/21 04:01:26;;;;;;;27.02;10.25;;;;;;;25.00;55.28;99254.43;1739937;82;21861;-82
2023/10/21 04:04:32;;;;;;;39.38;10.93;;;;;;;25.18;54.68;99254.27;1750179;82;21890;-82
2023/10/21 04:07:37;;;;;;;32.00;9.78;;;;;;;24.69;55.97;99256.70;1750189;82;21321;-82
2023/10/21 04:10:31;;;;;;;21.97;9.50;;;;;;;24.85;55.67;99260.20;1750105;82;21574;-82
2023/10/21 04:13:36;;;;;;;25.62;9.05;;;;;;;24.88;55.51;99251.20;1750084;82;21267;-82
2023/10/21 04:16:44;;;;;;;25.27;9.65;;;;;;;24.69;55.72;99255.30;1739877;81;21373;-82
2023/10/21 04:19:47;;;;;;;22.75;9.43;;;;;;;24.64;56.22;99242.78;1745931;82;21311;-82
2023/10/21 04:22:53;;;;;;;24.80;9.13;;;;;;;24.45;56.77;99243.52;1745584;82;21626;-82
2023/10/21 04:25:59;;;;;;;19.32;8.78;;;;;;;24.27;57.19;99237.21;1745200;82;21338;-81
2023/10/21 04:29:04;;;;;;;21.48;9.85;;;;;;;24.20;57.63;99238.95;1743258;82;21307;-82
2023/10/21 04:32:11;;;;;;;24.52;9.38;;;;;;;24.18;57.67;99244.02;1725410;82;21319;-82
2023/10/21 04:35:21;;;;;;;31.90;10.05;;;;;;;24.38;57.14;99250.02;1749733;82;21307;-82
2023/10/21 04:38:26;;;;;;;27.95;9.40;;;;;;;24.32;57.26;99239.95;1749899;82;21272;-82
2023/10/21 04:41:31;;;;;;;24.85;9.65;;;;;;;24.44;56.84;99233.47;1748457;82;21724;-82
2023/10/21 04:44:31;;;;;;;24.32;8.88;;;;;;;24.35;57.13;99247.77;1746460;82;21284;-82
2023/10/21 04:47:37;;;;;;;32.63;10.48;;;;;;;24.60;56.41;99250.91;1730096;82;21322;-82
2023/10/21 04:50:44;;;;;;;23.15;9.58;;;;;;;24.53;56.30;99258.83;1735093;82;21296;-82
2023/10/21 04:53:50;;;;;;;28.10;10.50;;;;;;;24.31;57.22;99270.43;1735188;82;21299;-82
2023/10/21 04:56:55;;;;;;;27.50;10.53;;;;;;;24.63;56.37;99288.08;1735226;82;21323;-82
2023/10/21 05:00:00;;;;;;;45.70;11.18;;;;;;;24.44;56.82;99294.13;1736201;82;21816;-83
2023/10/21 05:03:07;;;;;;;31.27;10.45;;;;;;;24.44;56.82;99304.73;1740717;82;21814;-82
2023/10/21 05:06:12;;;;;;;30.08;11.40;;;;;;;24.51;56.62;99309.14;1735292;82;21300;-82
2023/10/21 05:09:18;;;;;;;27.25;12.40;;;;;;;24.94;55.39;99319.39;1737084;82;21297;-82
2023/10/21 05:12:22;;;;;;;33.55;13.00;;;;;;;25.06;54.98;99334.36;1737887;82;21859;-83
2023/10/21 05:15:28;;;;;;;37.23;14.13;;;;;;;24.59;56.49;99330.89;1730880;82;21889;-82
2023/10/21 05:18:34;;;;;;;33.40;13.45;;;;;;;24.42;57.03;99338.31;1742688;82;21294;-83
2023/10/21 05:21:39;;;;;;;35.80;13.58;;;;;;;24.37;57.35;99343.38;1744674;82;21889;-82
2023/10/21 05:24:45;;;;;;;39.63;12.80;;;;;;;24.45;57.12;99337.14;1745298;82;21717;-82
2023/10/21 05:27:52;;;;;;;31.45;13.32;;;;;;;24.27;57.41;99338.36;1745328;82;21896;-83
2023/10/21 05:30:58;;;;;;;36.48;14.20;;;;;;;24.27;57.38;99343.39;1746353;81;23058;-82
2023/10/21 05:34:03;;;;;;;34.00;13.60;;;;;;;24.22;57.87;99341.46;1749933;82;21869;-82
2023/10/21 05:37:09;;;;;;;31.40;13.72;;;;;;;24.21;57.49;99330.58;1749830;81;21880;-82
2023/10/21 05:40:15;;;;;;;37.78;13.38;;;;;;;24.32;57.35;99327.15;1749881;82;21853;-82
2023/10/21 05:43:21;;;;;;;35.38;14.05;;;;;;;24.44;57.15;99328.48;1749975;82;21630;-83
2023/10/21 05:46:26;;;;;;;40.95;13.68;;;;;;;24.40;57.26;99334.95;1750043;81;21311;-83
2023/10/21 05:49:33;;;;;;;36.45;13.32;;;;;;;24.73;56.50;99334.11;1750138;82;21291;-82
2023/10/21 05:52:38;;;;;;;39.08;13.95;;;;;;;24.70;56.74;99324.94;1749519;81;21315;-82
2023/10/21 05:55:50;;;;;;;32.67;13.70;;;;;;;25.03;55.96;99318.19;1745299;82;21319;-82
2023/10/21 05:58:55;;;;;;;37.95;13.83;;;;;;;24.78;56.67;99319.25;1745390;82;21291;-83
2023/10/21 06:02:01;;;;;;;40.92;16.23;;;;;;;24.54;57.39;99323.37;1747972;81;21299;-82
2023/10/21 06:05:07;;;;;;;32.90;13.15;;;;;;;24.67;57.22;99322.71;1745519;82;21284;-83
2023/10/21 06:08:14;;;;;;;35.95;13.68;;;;;;;24.80;56.49;99323.17;1745445;82;21291;-83
2023/10/21 06:11:19;;;;;;;42.60;14.80;;;;;;;24.92;56.42;99323.59;1745310;82;21295;-82
2023/10/21 06:14:26;;;;;;;41.92;13.65;;;;;;;24.91;56.48;99328.92;1743907;82;21588;-82
2023/10/21 06:17:32;;;;;;;33.35;12.75;;;;;;;25.14;56.02;99332.36;1740490;82;21846;-83
2023/10/21 06:20:37;;;;;;;37.60;14.07;;;;;;;25.07;56.34;99334.66;1745381;82;21287;-83
2023/10/21 06:23:42;;;;;;;32.65;12.68;;;;;;;25.35;56.11;99339.12;1745137;82;21806;-83
2023/10/21 06:26:49;;;;;;;29.50;12.18;;;;;;;25.41;55.98;99328.16;1745323;82;21338;-83
2023/10/21 06:29:54;;;;;;;30.17;12.43;;;;;;;25.64;55.84;99321.70;1745762;82;21712;-83
2023/10/21 06:32:59;;;;;;;29.25;11.28;;;;;;;25.46;55.70;99328.09;1740424;82;21304;-83
2023/10/21 06:36:05;;;;;;;32.93;13.58;;;;;;;25.93;54.42;99323.02;1745390;82;21307;-83
2023/10/21 06:39:12;;;;;;;33.35;11.90;;;;;;;25.94;54.45;99313.48;1745319;82;21288;-83
2023/10/21 06:42:18;;;;;;;36.28;11.75;;;;;;;26.18;54.01;99316.20;1744502;82;21307;-82
2023/10/21 06:45:25;;;;;;;23.32;11.55;;;;;;;26.05;54.08;99315.55;1746830;82;21875;-81
2023/10/21 06:48:31;;;;;;;27.07;11.33;;;;;;;26.02;53.55;99309.17;1745283;82;21338;-82
2023/10/21 06:51:38;;;;;;;26.33;11.38;;;;;;;25.85;53.89;99304.66;1744970;82;21636;-83
2023/10/21 06:54:44;;;;;;;31.57;11.97;;;;;;;25.73;54.21;99304.47;1745400;82;21295;-83
2023/10/21 06:57:50;;;;;;;28.65;11.28;;;;;;;25.80;54.37;99294.92;1745413;82;21904;-83
2023/10/21 07:00:56;;;;;;;32.60;10.93;;;;;;;25.79;54.83;99291.86;1745285;82;21303;-83
2023/10/21 07:03:55;;;;;;;31.30;12.28;;;;;;;26.08;53.90;99300.13;1735854;82;21300;-83
2023/10/21 07:07:01;;;;;;;32.15;12.63;;;;;;;26.33;53.11;99303.09;1735240;82;21304;-83
2023/10/21 07:10:06;;;;;;;33.23;12.13;;;;;;;26.23;53.57;99299.87;1720115;83;21305;-83
2023/10/21 07:13:10;;;;;;;33.50;11.20;;;;;;;26.68;52.68;99307.31;1719746;83;21336;-83
2023/10/21 07:16:16;;;;;;;36.73;12.80;;;;;;;26.75;52.15;99302.13;1735373;82;21300;-83
2023/10/21 07:19:22;;;;;;;27.85;11.40;;;;;;;26.61;52.48;99298.45;1732631;83;21304;-83
2023/10/21 07:22:27;;;;;;;33.98;12.15;;;;;;;26.63;52.26;99297.02;1732363;82;21319;-83
2023/10/21 07:25:32;;;;;;;29.10;11.53;;;;;;;26.87;51.83;99305.28;1723531;82;22158;-83
2023/10/21 07:28:39;;;;;;;26.37;10.55;;;;;;;27.07;51.44;99316.70;1719669;83;21347;-84
2023/10/21 07:31:45;;;;;;;21.68;9.95;;;;;;;27.05;51.48;99313.34;1743999;81;21303;-83
2023/10/21 07:34:51;;;;;;;23.98;10.90;;;;;;;26.82;52.40;99308.19;1744392;81;21328;-83
2023/10/21 07:37:57;;;;;;;37.17;10.48;;;;;;;26.89;52.11;99320.40;1736896;82;21952;-83
2023/10/21 07:41:02;;;;;;;26.33;10.48;;;;;;;27.22;51.62;99322.04;1720587;82;21723;-83
2023/10/21 07:44:08;;;;;;;31.48;10.08;;;;;;;27.62;50.50;99329.40;1705172;84;21339;-83
2023/10/21 07:47:15;;;;;;;25.15;9.98;;;;;;;27.62;49.98;99327.14;1706489;83;21340;-84
2023/10/21 07:50:21;;;;;;;28.50;10.88;;;;;;;27.91;49.45;99328.25;1717461;83;21889;-83
2023/10/21 07:53:25;;;;;;;28.52;10.90;;;;;;;27.96;49.37;99332.35;1716784;83;21316;-83
2023/10/21 07:56:30;;;;;;;21.60;9.85;;;;;;;28.12;49.02;99321.58;1696385;84;21390;-84
2023/10/21 07:59:36;;;;;;;30.68;10.38;;;;;;;28.25;48.39;99329.16;1685336;85;21844;-83
2023/10/21 08:02:43;;;;;;;25.25;9.40;;;;;;;28.28;48.52;99332.74;1694389;83;21349;-82
2023/10/21 08:05:50;;;;;;;20.45;8.70;;;;;;;28.16;48.30;99325.42;1717400;83;21335;-83
2023/10/21 08:08:57;;;;;;;22.45;8.68;;;;;;;28.05;48.55;99335.25;1717745;82;21330;-82
2023/10/21 08:12:03;;;;;;;27.80;9.18;;;;;;;28.21;48.00;99343.00;1756976;81;21857;-82
2023/10/21 08:15:16;;;;;;;23.80;9.55;;;;;;;28.74;47.26;99343.70;1739216;81;21284;-83
2023/10/21 08:18:22;;;;;;;27.35;10.05;;;;;;;28.94;46.35;99339.56;1728201;82;22297;-83
2023/10/21 08:21:28;;;;;;;25.65;8.25;;;;;;;28.94;46.08;99338.73;1725036;82;21328;-83
2023/10/21 08:24:35;;;;;;;19.48;8.03;;;;;;;28.71;46.56;99337.34;1717771;83;21314;-83
2023/10/21 08:27:39;;;;;;;28.12;7.03;;;;;;;28.98;45.97;99332.72;1715874;83;21343;-82
2023/10/21 08:30:30;;;;;;;20.90;7.78;;;;;;;29.15;45.24;99337.05;1723857;82;21324;-83
2023/10/21 08:33:22;;;;;;;17.48;7.12;;;;;;;28.76;46.02;99337.20;1736310;82;21301;-83
2023/10/21 08:36:29;;;;;;;21.90;8.38;;;;;;;28.90;45.84;99332.08;1739311;82;21299;-83
2023/10/21 08:39:36;;;;;;;18.40;7.37;;;;;;;29.05;45.44;99338.73;1744313;82;21283;-82
2023/10/21 08:42:42;;;;;;;24.63;8.40;;;;;;;29.14;45.12;99339.62;1744162;82;21884;-83
2023/10/21 08:45:50;;;;;;;17.62;6.97;;;;;;;29.17;44.38;99336.72;1747122;81;21879;-82
2023/10/21 08:48:55;;;;;;;20.88;8.15;;;;;;;29.18;44.17;99339.81;1743999;82;21276;-82
2023/10/21 08:52:01;;;;;;;23.27;8.10;;;;;;;29.19;44.45;99333.02;1744281;82;21330;-82
2023/10/21 08:55:06;;;;;;;20.48;7.75;;;;;;;29.37;44.07;99335.34;1743868;82;21319;-82
2023/10/21 08:58:15;;;;;;;20.50;7.65;;;;;;;29.37;44.48;99334.77;1745215;82;21914;-82
2023/10/21 09:01:20;;;;;;;24.50;8.75;;;;;;;29.49;43.94;99341.17;1743949;82;21983;-82
2023/10/21 09:04:28;;;;;;;22.82;7.08;;;;;;;29.73;43.40;99338.80;1718458;83;21350;-83
2023/10/21 09:07:53;;;;;;;22.98;7.55;;;;;;;29.65;43.65;99338.22;1718239;83;21899;-82
2023/10/21 09:11:06;;;;;;;21.07;7.80;;;;;;;29.90;42.97;99343.67;1733222;82;21319;-82
2023/10/21 09:14:14;;;;;;;22.95;7.97;;;;;;;30.22;42.38;99350.89;1734817;82;21686;-82
2023/10/21 09:17:21;;;;;;;30.85;8.18;;;;;;;30.26;42.40;99354.72;1727488;82;21968;-82
2023/10/21 09:20:30;;;;;;;23.22;7.05;;;;;;;30.54;41.89;99354.41;1749811;82;21308;-82
2023/10/21 09:23:37;;;;;;;23.10;7.75;;;;;;;30.38;41.98;99347.00;1748787;82;21347;-82
2023/10/21 09:26:48;;;;;;;25.37;7.78;;;;;;;30.71;41.64;99355.81;1748798;82;21318;-82
2023/10/21 09:29:54;;;;;;;20.23;7.75;;;;;;;30.64;41.70;99353.23;1759239;81;21316;-83
2023/10/21 09:33:02;;;;;;;22.60;7.42;;;;;;;30.42;41.74;99357.87;1715391;83;21973;-83
2023/10/21 09:36:11;;;;;;;27.10;7.92;;;;;;;30.11;42.32;99357.95;1698795;84;21375;-82
2023/10/21 09:39:18;;;;;;;26.12;8.00;;;;;;;29.95;42.80;99351.97;1698993;84;21957;-82
2023/10/21 09:42:23;;;;;;;27.27;8.10;;;;;;;30.22;42.41;99356.53;1701113;83;21957;-82
2023/10/21 09:45:34;;;;;;;22.22;7.17;;;;;;;30.19;42.36;99352.95;1732659;81;21697;-83
2023/10/21 09:48:46;;;;;;;21.23;7.72;;;;;;;30.36;42.05;99348.50;1755602;81;21277;-83
2023/10/21 09:52:14;;;;;;;19.60;6.40;;;;;;;30.24;42.03;99344.33;1755645;81;21323;-83
2023/10/21 09:55:24;;;;;;;18.65;6.90;;;;;;;30.24;42.03;99345.73;1755643;81;21257;-82
2023/10/21 09:58:27;;;;;;;23.00;7.33;;;;;;;30.29;41.69;99336.28;1755598;81;21260;-83
2023/10/21 10:01:32;;;;;;;18.07;7.42;;;;;;;30.47;41.33;99342.19;1739562;81;21322;-83
2023/10/21 10:04:39;;;;;;;21.95;7.58;;;;;;;30.12;42.09;99350.36;1763356;81;21328;-83
2023/10/21 10:07:39;;;;;;;20.20;8.08;;;;;;;30.16;42.08;99349.41;1799957;79;21311;-82
2023/10/21 10:10:34;;;;;;;18.30;6.35;;;;;;;30.09;42.27;99349.02;1801000;79;21903;-82
2023/10/21 10:13:42;;;;;;;19.55;6.92;;;;;;;30.39;41.83;99344.41;1775113;79;21268;-83
2023/10/21 10:16:49;;;;;;;27.73;7.55;;;;;;;30.67;41.16;99350.55;1762807;79;21324;-83
2023/10/21 10:19:55;;;;;;;26.42;7.08;;;;;;;30.64;40.67;99346.18;1768490;81;21324;-83
2023/10/21 10:23:13;;;;;;;23.10;7.00;;;;;;;30.54;40.75;99345.94;1769799;80;21214;-83
2023/10/21 10:26:19;;;;;;;23.47;6.55;;;;;;;30.96;39.95;99349.91;1768314;81;21300;-83
2023/10/21 10:29:26;;;;;;;23.27;6.60;;;;;;;30.97;40.01;99347.91;1753327;79;21347;-83
2023/10/21 10:44:18;;;;;;;26.55;6.42;;;;;;;31.22;39.27;99341.35;1786782;79;21252;-83
2023/10/21 10:47:26;;;;;;;18.35;6.22;;;;;;;31.28;39.04;99330.14;1766140;81;21323;-83
2023/10/21 10:50:36;;;;;;;18.48;5.28;;;;;;;31.23;39.25;99331.70;1767928;79;21295;-83
2023/10/21 10:53:41;;;;;;;;;;;;;;;31.23;39.37;99330.30;1797752;80;21292;-83
2023/10/21 10:56:50;;;;;;;19.55;6.22;;;;;;;31.30;38.81;99323.58;1794525;80;20594;-81
2023/10/21 11:00:00;;;;;;;24.37;6.60;;;;;;;30.89;39.49;99329.81;1795671;80;21292;-83
2023/10/21 11:03:09;;;;;;;16.70;6.10;;;;;;;31.02;39.30;99334.44;1779025;80;21331;-83
2023/10/21 11:06:30;;;;;;;20.75;6.17;;;;;;;30.87;39.50;99336.97;1761557;80;21194;-82
2023/10/21 11:09:39;;;;;;;18.80;6.47;;;;;;;30.86;39.40;99337.52;1734973;81;21280;-83
2023/10/21 11:12:48;;;;;;;;;;;;;;;30.90;39.42;99337.70;1739208;81;21311;-83
2023/10/21 11:16:05;;;;;;;17.00;5.78;;;;;;;31.03;39.39;99336.67;1751710;81;20591;-83
2023/10/21 11:19:32;;;;;;;22.30;6.67;;;;;;;31.20;39.05;99340.05;1789141;79;21263;-82
2023/10/21 11:22:43;;;;;;;13.35;5.62;;;;;;;30.94;39.33;99352.22;1794193;79;21796;-83
2023/10/21 11:25:49;;;;;;;19.10;5.60;;;;;;;30.77;39.63;99355.05;1722633;83;21777;-83
2023/10/21 11:28:56;;;;;;;24.30;6.85;;;;;;;30.99;39.26;99354.86;1781265;79;21261;-82
2023/10/21 11:32:09;;;;;;;19.02;7.50;;;;;;;30.93;39.54;99352.56;1798960;79;21276;-83
2023/10/21 11:35:20;;;;;;;14.63;6.50;;;;;;;31.19;39.04;99350.48;1801130;79;21312;-83
2023/10/21 11:38:36;;;;;;;20.72;6.90;;;;;;;30.65;39.81;99358.53;1800877;79;21303;-82
2023/10/21 11:41:46;;;;;;;23.15;7.90;;;;;;;30.53;40.39;99358.36;1732267;83;21316;-84
2023/10/21 11:44:59;;;;;;;28.83;8.63;;;;;;;30.59;40.18;99361.28;1756068;79;21726;-82
2023/10/21 11:48:09;;;;;;;30.55;8.18;;;;;;;30.79;40.05;99366.27;1791379;80;21269;-83
2023/10/21 11:51:23;;;;;;;23.70;7.33;;;;;;;30.94;40.04;99373.98;1793934;80;21299;-82
2023/10/21 11:54:35;;;;;;;22.48;7.00;;;;;;;30.74;40.26;99372.09;1727292;83;21316;-83
2023/10/21 12:05:34;;;;;;;23.52;8.30;;;;;;;31.38;39.33;99380.38;1757885;81;21186;-82
2023/10/21 12:11:52;;;;;;;20.43;7.10;;;;;;;31.75;38.12;99389.45;1757735;81;21312;-83
2023/10/21 12:15:06;;;;;;;16.07;5.78;;;;;;;31.42;38.34;99385.02;1738857;81;21825;-82
2023/10/21 12:18:27;;;;;;;21.93;6.42;;;;;;;31.42;38.09;99392.08;1757911;81;21201;-83
2023/10/21 12:38:22;;;;;;;23.57;6.47;;;;;;;31.23;38.47;99422.09;1754648;81;21304;-82
2023/10/21 12:41:31;;;;;;;21.48;6.08;;;;;;;30.98;38.72;99428.62;1757301;81;21347;-83
2023/10/21 12:44:47;;;;;;;25.90;7.17;;;;;;;31.14;38.52;99421.27;1757688;81;21269;-83
2023/10/21 12:47:51;;;;;;;21.80;7.03;;;;;;;31.10;38.37;99423.14;1755045;81;21309;-83
2023/10/21 12:51:07;;;;;;;20.62;6.42;;;;;;;30.70;38.83;99428.92;1757537;81;21850;-83
2023/10/21 12:54:16;;;;;;;18.37;5.60;;;;;;;30.48;39.19;99433.29;1757353;81;21269;-82
2023/10/21 12:57:28;;;;;;;25.77;6.60;;;;;;;30.52;39.15;99439.36;1757326;81;21882;-82
2023/10/21 13:00:37;;;;;;;18.27;6.67;;;;;;;30.74;38.96;99441.83;1744062;81;21300;-83
2023/10/21 13:03:51;;;;;;;23.07;6.65;;;;;;;30.63;39.24;99444.67;1695668;84;21332;-84
2023/10/21 13:07:04;;;;;;;25.32;7.10;;;;;;;30.68;39.18;99444.54;1708277;83;21309;-83
2023/10/21 13:10:14;;;;;;;36.48;7.87;;;;;;;30.61;39.41;99449.83;1716046;83;21865;-83
2023/10/21 13:13:28;;;;;;;19.40;7.53;;;;;;;30.65;39.43;99456.48;1717631;82;21275;-82
2023/10/21 13:16:35;;;;;;;18.52;6.42;;;;;;;30.55;39.51;99451.98;1724616;82;21796;-83
2023/10/21 13:19:44;;;;;;;25.32;6.47;;;;;;;30.72;39.08;99457.66;1707923;82;21311;-82
2023/10/21 13:22:54;;;;;;;25.10;6.70;;;;;;;30.64;39.24;99461.88;1736172;82;21790;-83
2023/10/21 13:26:07;;;;;;;16.35;6.58;;;;;;;30.78;39.08;99467.65;1734940;82;21232;-82
2023/10/21 13:29:23;;;;;;;31.20;7.70;;;;;;;30.63;39.30;99466.70;1700166;84;21793;-83
2023/10/21 13:32:22;;;;;;;23.75;8.23;;;;;;;30.54;39.63;99472.33;1721320;82;21190;-83
2023/10/21 13:35:21;;;;;;;26.40;7.60;;;;;;;30.52;39.62;99476.62;1762252;81;21214;-83
2023/10/21 13:38:09;;;;;;;27.95;7.60;;;;;;;30.66;39.50;99476.48;1701614;84;21713;-83
2023/10/21 13:41:06;;;;;;;32.38;8.53;;;;;;;30.35;39.96;99478.84;1731987;83;21220;-83
2023/10/21 13:44:14;;;;;;;20.32;8.38;;;;;;;30.36;40.00;99476.84;1732194;83;21283;-83
2023/10/21 13:47:19;;;;;;;30.82;8.95;;;;;;;30.33;39.98;99485.95;1730302;82;21233;-83
2023/10/21 13:50:28;;;;;;;33.50;8.30;;;;;;;30.28;40.03;99487.77;1717766;83;21284;-83
2023/10/21 13:53:36;;;;;;;23.52;7.22;;;;;;;30.19;40.12;99491.13;1760730;81;21957;-83
2023/10/21 13:56:44;;;;;;;33.20;7.40;;;;;;;30.39;39.69;99493.92;1762448;81;21948;-82
2023/10/21 13:59:57;;;;;;;33.00;7.80;;;;;;;30.34;39.80;99499.72;1762952;81;21638;-83
2023/10/21 14:03:13;;;;;;;30.27;7.42;;;;;;;30.21;40.00;99507.16;1795558;79;21197;-83
2023/10/21 14:06:20;;;;;;;22.48;7.60;;;;;;;30.00;40.47;99504.05;1734521;82;21313;-82
2023/10/21 14:09:28;;;;;;;30.95;6.90;;;;;;;29.90;40.63;99506.33;1732075;82;21332;-83
2023/10/21 14:12:39;;;;;;;34.20;7.20;;;;;;;30.09;40.31;99515.38;1731817;82;21873;-83
2023/10/21 14:15:41;;;;;;;20.65;7.05;;;;;;;29.75;40.97;99522.50;1740421;81;21897;-84
2023/10/21 14:19:08;;;;;;;28.30;8.53;;;;;;;29.76;40.86;99529.80;1721259;81;21206;-83
2023/10/21 14:22:15;;;;;;;29.52;10.10;;;;;;;29.64;40.95;99535.76;1760981;81;21312;-84
2023/10/21 14:25:20;;;;;;;43.02;10.98;;;;;;;29.72;40.68;99542.86;1757507;81;21273;-83
2023/10/21 14:28:27;;;;;;;35.40;10.65;;;;;;;29.81;40.46;99546.32;1757672;81;21308;-83
2023/10/21 14:31:35;;;;;;;25.17;10.13;;;;;;;29.94;40.14;99540.59;1784687;79;21821;-83
2023/10/21 14:34:41;;;;;;;46.13;11.73;;;;;;;29.65;40.52;99546.73;1792539;79;21292;-85
2023/10/21 14:37:48;;;;;;;31.85;10.95;;;;;;;29.18;41.51;99552.39;1769829;80;21287;-83
2023/10/21 14:40:53;;;;;;;25.23;11.85;;;;;;;29.31;41.62;99554.88;1769451;81;21291;-83
2023/10/21 14:44:00;;;;;;;27.90;9.30;;;;;;;29.23;41.85;99559.30;1769390;81;21298;-83
2023/10/21 14:47:06;;;;;;;29.98;10.05;;;;;;;28.99;42.24;99563.81;1790477;79;21309;-83
2023/10/21 14:50:13;;;;;;;34.78;11.75;;;;;;;28.80;42.71;99573.77;1789894;79;21295;-83
2023/10/21 14:53:18;;;;;;;23.70;8.40;;;;;;;28.71;42.98;99582.12;1789865;80;21292;-82
2023/10/21 14:56:24;;;;;;;31.12;7.90;;;;;;;28.91;42.75;99584.22;1721441;83;22239;-82
2023/10/21 14:59:30;;;;;;;31.62;9.30;;;;;;;28.93;42.75;99581.33;1789822;80;21269;-83
2023/10/21 15:02:37;;;;;;;24.50;7.65;;;;;;;28.35;43.73;99587.64;1722699;83;21329;-83
2023/10/21 15:05:43;;;;;;;28.17;7.42;;;;;;;28.34;43.64;99592.15;1770599;80;21316;-82
2023/10/21 15:08:50;;;;;;;43.13;8.08;;;;;;;28.18;43.89;99601.43;1752715;82;21312;-82